sensor_id;sensor_type;location;lat;lon;timestamp;pressure;altitude;pressure_sealevel;temperature;humidity
27984;BME280;15317;50.360;8.726;2023-10-31T00:02:59;97725.91;;;11.73;100.00
27984;BME280;15317;50.360;8.726;2023-10-31T00:08:03;97718.38;;;11.69;100.00
27984;BME280;15317;50.360;8.726;2023-10-31T00:13:06;97717.72;;;11.60;100.00
27984;BME280;15317;50.360;8.726;2023-10-31T00:18:11;97725.09;;;11.60;100.00
27984;BME280;15317;50.360;8.726;2023-10-31T00:23:15;97748.28;;;11.49;100.00
27984;BME280;15317;50.360;8.726;2023-10-31T00:28:19;97751.81;;;11.43;100.00
27984;BME280;15317;50.360;8.726;2023-10-31T00:33:23;97761.22;;;11.47;100.00
27984;BME280;15317;50.360;8.726;2023-10-31T00:38:27;97764.16;;;11.32;100.00
27984;BME280;15317;50.360;8.726;2023-10-31T00:43:30;97767.09;;;11.37;100.00
27984;BME280;15317;50.360;8.726;2023-10-31T00:48:35;97779.81;;;11.30;100.00
27984;BME280;15317;50.360;8.726;2023-10-31T00:53:39;97780.22;;;11.27;100.00
27984;BME280;15317;50.360;8.726;2023-10-31T00:58:42;97792.78;;;11.28;100.00
27984;BME280;15317;50.360;8.726;2023-10-31T01:03:46;97794.84;;;11.26;100.00
27984;BME280;15317;50.360;8.726;2023-10-31T01:08:50;97792.38;;;11.25;100.00
27984;BME280;15317;50.360;8.726;2023-10-31T01:13:53;97780.66;;;11.24;100.00
27984;BME280;15317;50.360;8.726;2023-10-31T01:18:57;97778.13;;;11.16;100.00
27984;BME280;15317;50.360;8.726;2023-10-31T01:24:00;97785.19;;;11.04;100.00
27984;BME280;15317;50.360;8.726;2023-10-31T01:29:03;97782.66;;;10.96;100.00
27984;BME280;15317;50.360;8.726;2023-10-31T01:34:08;97777.63;;;10.93;100.00
27984;BME280;15317;50.360;8.726;2023-10-31T01:39:11;97779.69;;;10.84;100.00
27984;BME280;15317;50.360;8.726;2023-10-31T01:44:15;97782.13;;;10.73;100.00
27984;BME280;15317;50.360;8.726;2023-10-31T01:49:19;97787.56;;;10.73;100.00
27984;BME280;15317;50.360;8.726;2023-10-31T01:54:23;97789.34;;;10.52;100.00
27984;BME280;15317;50.360;8.726;2023-10-31T01:59:26;97811.75;;;10.26;100.00
27984;BME280;15317;50.360;8.726;2023-10-31T02:04:31;97802.16;;;10.30;100.00
27984;BME280;15317;50.360;8.726;2023-10-31T02:09:34;97785.84;;;10.24;100.00
27984;BME280;15317;50.360;8.726;2023-10-31T02:14:37;97804.44;;;10.27;100.00
27984;BME280;15317;50.360;8.726;2023-10-31T02:19:41;97822.59;;;10.26;100.00
27984;BME280;15317;50.360;8.726;2023-10-31T02:24:47;97810.88;;;10.19;100.00
27984;BME280;15317;50.360;8.726;2023-10-31T02:29:51;97824.25;;;10.00;100.00
27984;BME280;15317;50.360;8.726;2023-10-31T02:34:54;97819.63;;;9.94;100.00
27984;BME280;15317;50.360;8.726;2023-10-31T02:39:59;97823.41;;;9.99;100.00
27984;BME280;15317;50.360;8.726;2023-10-31T02:45:03;97816.94;;;10.21;100.00
27984;BME280;15317;50.360;8.726;2023-10-31T02:50:07;97813.75;;;10.18;100.00
27984;BME280;15317;50.360;8.726;2023-10-31T02:55:12;97820.94;;;10.04;100.00
27984;BME280;15317;50.360;8.726;2023-10-31T03:00:16;97827.63;;;10.02;100.00
27984;BME280;15317;50.360;8.726;2023-10-31T03:05:19;97834.25;;;9.99;100.00
27984;BME280;15317;50.360;8.726;2023-10-31T03:10:24;97851.91;;;9.88;100.00
27984;BME280;15317;50.360;8.726;2023-10-31T03:15:27;97852.41;;;9.77;100.00
27984;BME280;15317;50.360;8.726;2023-10-31T03:20:30;97855.13;;;9.77;100.00
27984;BME280;15317;50.360;8.726;2023-10-31T03:25:35;97866.38;;;9.74;100.00
27984;BME280;15317;50.360;8.726;2023-10-31T03:30:38;97873.59;;;9.67;100.00
27984;BME280;15317;50.360;8.726;2023-10-31T03:35:42;97890.59;;;9.55;100.00
27984;BME280;15317;50.360;8.726;2023-10-31T03:40:46;97895.59;;;9.58;100.00
27984;BME280;15317;50.360;8.726;2023-10-31T03:45:49;97903.78;;;9.64;100.00
27984;BME280;15317;50.360;8.726;2023-10-31T03:50:52;97910.66;;;9.60;100.00
27984;BME280;15317;50.360;8.726;2023-10-31T03:55:58;97911.72;;;9.44;100.00
27984;BME280;15317;50.360;8.726;2023-10-31T04:01:02;97922.84;;;9.35;100.00
27984;BME280;15317;50.360;8.726;2023-10-31T04:06:06;97932.78;;;9.28;100.00
27984;BME280;15317;50.360;8.726;2023-10-31T04:11:10;97939.06;;;9.14;100.00
27984;BME280;15317;50.360;8.726;2023-10-31T04:16:14;97936.53;;;8.97;100.00
27984;BME280;15317;50.360;8.726;2023-10-31T04:21:17;97944.56;;;8.76;100.00
27984;BME280;15317;50.360;8.726;2023-10-31T04:26:22;97942.69;;;8.62;100.00
27984;BME280;15317;50.360;8.726;2023-10-31T04:31:25;97947.53;;;8.52;100.00
27984;BME280;15317;50.360;8.726;2023-10-31T04:36:42;97952.75;;;8.39;100.00
27984;BME280;15317;50.360;8.726;2023-10-31T04:41:47;97966.03;;;8.25;100.00
27984;BME280;15317;50.360;8.726;2023-10-31T04:46:50;97973.19;;;8.18;100.00
27984;BME280;15317;50.360;8.726;2023-10-31T04:51:53;97980.25;;;8.19;100.00
27984;BME280;15317;50.360;8.726;2023-10-31T04:56:57;97981.94;;;8.20;100.00
27984;BME280;15317;50.360;8.726;2023-10-31T05:02:01;97991.84;;;8.28;100.00
27984;BME280;15317;50.360;8.726;2023-10-31T05:07:07;97989.69;;;8.46;100.00
27984;BME280;15317;50.360;8.726;2023-10-31T05:12:12;97994.28;;;8.46;100.00
27984;BME280;15317;50.360;8.726;2023-10-31T05:17:15;97989.59;;;8.54;100.00
27984;BME280;15317;50.360;8.726;2023-10-31T05:22:18;97992.06;;;8.64;100.00
27984;BME280;15317;50.360;8.726;2023-10-31T05:27:26;97991.03;;;8.65;100.00
27984;BME280;15317;50.360;8.726;2023-10-31T05:32:32;97997.19;;;8.59;100.00
27984;BME280;15317;50.360;8.726;2023-10-31T05:37:35;97999.09;;;8.73;100.00
27984;BME280;15317;50.360;8.726;2023-10-31T05:42:39;98000.66;;;8.82;100.00
27984;BME280;15317;50.360;8.726;2023-10-31T05:47:43;98005.56;;;8.87;100.00
27984;BME280;15317;50.360;8.726;2023-10-31T05:52:46;98009.84;;;8.96;100.00
27984;BME280;15317;50.360;8.726;2023-10-31T05:57:51;98015.81;;;8.91;100.00
27984;BME280;15317;50.360;8.726;2023-10-31T06:02:54;98017.00;;;8.89;100.00
27984;BME280;15317;50.360;8.726;2023-10-31T06:07:57;98021.41;;;8.90;100.00
27984;BME280;15317;50.360;8.726;2023-10-31T06:13:02;98035.97;;;8.89;100.00
27984;BME280;15317;50.360;8.726;2023-10-31T06:18:06;98036.44;;;8.92;100.00
27984;BME280;15317;50.360;8.726;2023-10-31T06:23:09;98053.81;;;8.98;100.00
27984;BME280;15317;50.360;8.726;2023-10-31T06:28:14;98062.78;;;8.98;100.00
27984;BME280;15317;50.360;8.726;2023-10-31T06:33:17;98058.84;;;9.01;100.00
27984;BME280;15317;50.360;8.726;2023-10-31T06:38:20;98072.22;;;9.02;100.00
27984;BME280;15317;50.360;8.726;2023-10-31T06:43:25;98092.84;;;9.03;100.00
27984;BME280;15317;50.360;8.726;2023-10-31T06:48:31;98093.13;;;9.08;100.00
27984;BME280;15317;50.360;8.726;2023-10-31T06:53:35;98103.91;;;9.17;100.00
27984;BME280;15317;50.360;8.726;2023-10-31T06:58:39;98110.44;;;9.22;100.00
27984;BME280;15317;50.360;8.726;2023-10-31T07:03:42;98114.94;;;9.30;100.00
27984;BME280;15317;50.360;8.726;2023-10-31T07:08:46;98124.19;;;9.35;100.00
27984;BME280;15317;50.360;8.726;2023-10-31T07:13:50;98127.38;;;9.39;100.00
27984;BME280;15317;50.360;8.726;2023-10-31T07:18:54;98136.81;;;9.43;100.00
27984;BME280;15317;50.360;8.726;2023-10-31T07:23:57;98133.16;;;9.50;100.00
27984;BME280;15317;50.360;8.726;2023-10-31T07:29:02;98143.47;;;9.55;100.00
27984;BME280;15317;50.360;8.726;2023-10-31T07:34:05;98155.78;;;9.58;100.00
27984;BME280;15317;50.360;8.726;2023-10-31T07:39:08;98162.53;;;9.62;100.00
27984;BME280;15317;50.360;8.726;2023-10-31T07:44:13;98165.72;;;9.65;100.00
27984;BME280;15317;50.360;8.726;2023-10-31T07:49:16;98168.06;;;9.68;100.00
27984;BME280;15317;50.360;8.726;2023-10-31T07:54:19;98178.34;;;9.73;100.00
27984;BME280;15317;50.360;8.726;2023-10-31T07:59:24;98186.94;;;9.76;100.00
27984;BME280;15317;50.360;8.726;2023-10-31T08:04:27;98179.84;;;9.75;100.00
27984;BME280;15317;50.360;8.726;2023-10-31T08:09:30;98192.34;;;9.76;100.00
27984;BME280;15317;50.360;8.726;2023-10-31T08:14:35;98198.63;;;9.77;100.00
27984;BME280;15317;50.360;8.726;2023-10-31T08:19:38;98210.97;;;9.79;100.00
27984;BME280;15317;50.360;8.726;2023-10-31T08:24:41;98216.31;;;9.87;100.00
27984;BME280;15317;50.360;8.726;2023-10-31T08:29:46;98219.13;;;9.94;100.00
27984;BME280;15317;50.360;8.726;2023-10-31T08:34:49;98227.25;;;9.94;100.00
27984;BME280;15317;50.360;8.726;2023-10-31T08:39:52;98232.09;;;9.99;100.00
27984;BME280;15317;50.360;8.726;2023-10-31T08:44:57;98234.56;;;10.08;100.00
27984;BME280;15317;50.360;8.726;2023-10-31T08:50:00;98241.41;;;10.19;100.00
27984;BME280;15317;50.360;8.726;2023-10-31T08:55:04;98249.25;;;10.14;100.00
27984;BME280;15317;50.360;8.726;2023-10-31T09:00:10;98254.13;;;10.18;100.00
27984;BME280;15317;50.360;8.726;2023-10-31T09:05:15;98257.31;;;10.22;100.00
27984;BME280;15317;50.360;8.726;2023-10-31T09:10:18;98271.06;;;10.20;100.00
27984;BME280;15317;50.360;8.726;2023-10-31T09:15:23;98272.28;;;10.18;100.00
27984;BME280;15317;50.360;8.726;2023-10-31T09:20:26;98276.59;;;10.27;100.00
27984;BME280;15317;50.360;8.726;2023-10-31T09:25:29;98280.22;;;10.34;100.00
27984;BME280;15317;50.360;8.726;2023-10-31T09:30:34;98292.78;;;10.50;100.00
27984;BME280;15317;50.360;8.726;2023-10-31T09:35:38;98292.47;;;10.59;100.00
27984;BME280;15317;50.360;8.726;2023-10-31T09:40:41;98299.47;;;10.83;100.00
27984;BME280;15317;50.360;8.726;2023-10-31T09:45:46;98303.56;;;10.94;100.00
27984;BME280;15317;50.360;8.726;2023-10-31T09:50:50;98309.09;;;11.22;100.00
27984;BME280;15317;50.360;8.726;2023-10-31T09:55:54;98308.38;;;11.34;100.00
27984;BME280;15317;50.360;8.726;2023-10-31T10:01:00;98302.84;;;11.42;100.00
27984;BME280;15317;50.360;8.726;2023-10-31T10:06:04;98292.19;;;11.69;100.00
27984;BME280;15317;50.360;8.726;2023-10-31T10:11:07;98282.34;;;11.68;100.00
27984;BME280;15317;50.360;8.726;2023-10-31T10:16:12;98292.16;;;11.83;100.00
27984;BME280;15317;50.360;8.726;2023-10-31T10:21:16;98280.44;;;11.83;100.00
27984;BME280;15317;50.360;8.726;2023-10-31T10:26:20;98280.94;;;11.93;100.00
27984;BME280;15317;50.360;8.726;2023-10-31T10:31:28;98280.38;;;12.04;100.00
27984;BME280;15317;50.360;8.726;2023-10-31T10:36:32;98273.41;;;12.64;100.00
27984;BME280;15317;50.360;8.726;2023-10-31T10:41:38;98268.88;;;12.91;100.00
27984;BME280;15317;50.360;8.726;2023-10-31T10:46:47;98276.59;;;13.28;100.00
27984;BME280;15317;50.360;8.726;2023-10-31T10:51:59;98262.56;;;13.51;100.00
27984;BME280;15317;50.360;8.726;2023-10-31T10:57:11;98268.59;;;14.52;100.00
27984;BME280;15317;50.360;8.726;2023-10-31T11:02:18;98269.06;;;15.00;100.00
27984;BME280;15317;50.360;8.726;2023-10-31T11:07:23;98264.25;;;14.89;100.00
27984;BME280;15317;50.360;8.726;2023-10-31T11:12:27;98275.81;;;14.91;100.00
27984;BME280;15317;50.360;8.726;2023-10-31T11:17:36;98272.28;;;14.77;100.00
27984;BME280;15317;50.360;8.726;2023-10-31T11:22:43;98270.53;;;14.96;100.00
27984;BME280;15317;50.360;8.726;2023-10-31T11:27:47;98262.97;;;15.29;100.00
27984;BME280;15317;50.360;8.726;2023-10-31T11:32:53;98265.97;;;15.59;100.00
27984;BME280;15317;50.360;8.726;2023-10-31T11:38:04;98263.94;;;15.48;93.93
27984;BME280;15317;50.360;8.726;2023-10-31T11:43:08;98279.88;;;15.58;96.93
27984;BME280;15317;50.360;8.726;2023-10-31T11:48:15;98281.63;;;15.46;95.70
27984;BME280;15317;50.360;8.726;2023-10-31T11:53:18;98273.00;;;15.04;96.54
27984;BME280;15317;50.360;8.726;2023-10-31T11:58:24;98278.78;;;14.83;95.52
27984;BME280;15317;50.360;8.726;2023-10-31T12:03:36;98282.44;;;14.57;95.57
27984;BME280;15317;50.360;8.726;2023-10-31T12:08:41;98285.00;;;14.32;98.07
27984;BME280;15317;50.360;8.726;2023-10-31T12:13:53;98286.66;;;14.33;96.93
27984;BME280;15317;50.360;8.726;2023-10-31T12:18:59;98305.56;;;14.35;100.00
27984;BME280;15317;50.360;8.726;2023-10-31T12:24:04;98312.06;;;14.67;100.00
27984;BME280;15317;50.360;8.726;2023-10-31T12:29:11;98323.09;;;14.98;94.27
27984;BME280;15317;50.360;8.726;2023-10-31T12:34:17;98326.41;;;15.13;92.98
27984;BME280;15317;50.360;8.726;2023-10-31T12:39:23;98339.56;;;15.74;96.39
27984;BME280;15317;50.360;8.726;2023-10-31T12:44:27;98330.56;;;15.67;89.63
27984;BME280;15317;50.360;8.726;2023-10-31T12:49:32;98334.19;;;15.61;88.16
27984;BME280;15317;50.360;8.726;2023-10-31T12:54:37;98338.03;;;15.47;87.05
27984;BME280;15317;50.360;8.726;2023-10-31T12:59:41;98338.94;;;15.72;84.52
27984;BME280;15317;50.360;8.726;2023-10-31T13:04:45;98339.66;;;15.61;85.01
27984;BME280;15317;50.360;8.726;2023-10-31T13:09:49;98346.31;;;15.71;87.93
27984;BME280;15317;50.360;8.726;2023-10-31T13:14:52;98343.75;;;15.76;91.35
27984;BME280;15317;50.360;8.726;2023-10-31T13:19:57;98356.16;;;15.41;84.71
27984;BME280;15317;50.360;8.726;2023-10-31T13:25:00;98352.81;;;14.75;91.32
27984;BME280;15317;50.360;8.726;2023-10-31T13:30:05;98356.78;;;14.92;89.04
27984;BME280;15317;50.360;8.726;2023-10-31T13:35:09;98352.59;;;14.76;91.16
27984;BME280;15317;50.360;8.726;2023-10-31T13:40:14;98354.75;;;14.54;96.35
27984;BME280;15317;50.360;8.726;2023-10-31T13:45:17;98360.22;;;14.41;100.00
27984;BME280;15317;50.360;8.726;2023-10-31T13:50:21;98368.66;;;14.46;100.00
27984;BME280;15317;50.360;8.726;2023-10-31T13:55:25;98362.75;;;14.16;95.41
27984;BME280;15317;50.360;8.726;2023-10-31T14:00:28;98370.94;;;14.03;100.00
27984;BME280;15317;50.360;8.726;2023-10-31T14:05:33;98373.22;;;14.06;98.32
27984;BME280;15317;50.360;8.726;2023-10-31T14:10:36;98375.53;;;13.96;97.58
27984;BME280;15317;50.360;8.726;2023-10-31T14:15:41;98375.53;;;13.96;100.00
27984;BME280;15317;50.360;8.726;2023-10-31T14:20:46;98383.09;;;13.88;100.00
27984;BME280;15317;50.360;8.726;2023-10-31T14:25:50;98396.69;;;13.61;99.29
27984;BME280;15317;50.360;8.726;2023-10-31T14:30:53;98403.38;;;13.59;99.61
27984;BME280;15317;50.360;8.726;2023-10-31T14:35:57;98400.00;;;13.43;100.00
27984;BME280;15317;50.360;8.726;2023-10-31T14:41:00;98401.19;;;13.28;100.00
27984;BME280;15317;50.360;8.726;2023-10-31T14:46:04;98405.03;;;13.05;100.00
27984;BME280;15317;50.360;8.726;2023-10-31T14:51:10;98408.44;;;12.80;100.00
27984;BME280;15317;50.360;8.726;2023-10-31T14:56:13;98417.44;;;12.46;100.00
27984;BME280;15317;50.360;8.726;2023-10-31T15:01:17;98417.88;;;12.00;100.00
27984;BME280;15317;50.360;8.726;2023-10-31T15:06:21;98422.47;;;11.78;100.00
27984;BME280;15317;50.360;8.726;2023-10-31T15:11:25;98414.63;;;11.54;100.00
27984;BME280;15317;50.360;8.726;2023-10-31T15:16:28;98419.13;;;11.26;100.00
27984;BME280;15317;50.360;8.726;2023-10-31T15:21:33;98431.72;;;10.97;100.00
27984;BME280;15317;50.360;8.726;2023-10-31T15:26:36;98443.75;;;10.65;100.00
27984;BME280;15317;50.360;8.726;2023-10-31T15:31:43;98443.34;;;10.39;100.00
27984;BME280;15317;50.360;8.726;2023-10-31T15:36:48;98449.41;;;10.26;100.00
27984;BME280;15317;50.360;8.726;2023-10-31T15:41:51;98459.50;;;10.18;100.00
27984;BME280;15317;50.360;8.726;2023-10-31T15:46:57;98477.47;;;10.11;100.00
27984;BME280;15317;50.360;8.726;2023-10-31T15:52:01;98493.84;;;10.03;100.00
27984;BME280;15317;50.360;8.726;2023-10-31T15:57:05;98500.19;;;9.95;100.00
27984;BME280;15317;50.360;8.726;2023-10-31T16:02:08;98522.09;;;9.85;100.00
27984;BME280;15317;50.360;8.726;2023-10-31T16:07:13;98531.13;;;9.78;100.00
27984;BME280;15317;50.360;8.726;2023-10-31T16:12:16;98531.69;;;9.65;100.00
27984;BME280;15317;50.360;8.726;2023-10-31T16:17:20;98539.00;;;9.57;100.00
27984;BME280;15317;50.360;8.726;2023-10-31T16:22:25;98536.50;;;9.55;100.00
27984;BME280;15317;50.360;8.726;2023-10-31T16:27:28;98550.09;;;9.47;100.00
27984;BME280;15317;50.360;8.726;2023-10-31T16:32:31;98553.50;;;9.41;100.00
27984;BME280;15317;50.360;8.726;2023-10-31T16:37:36;98559.94;;;9.40;100.00
27984;BME280;15317;50.360;8.726;2023-10-31T16:42:39;98572.78;;;9.46;100.00
27984;BME280;15317;50.360;8.726;2023-10-31T16:47:44;98566.81;;;9.50;100.00
27984;BME280;15317;50.360;8.726;2023-10-31T16:52:48;98572.91;;;9.61;100.00
27984;BME280;15317;50.360;8.726;2023-10-31T16:57:52;98582.03;;;9.68;100.00
27984;BME280;15317;50.360;8.726;2023-10-31T17:02:55;98590.28;;;9.74;100.00
27984;BME280;15317;50.360;8.726;2023-10-31T17:07:59;98600.91;;;9.84;100.00
27984;BME280;15317;50.360;8.726;2023-10-31T17:13:02;98601.00;;;9.99;100.00
27984;BME280;15317;50.360;8.726;2023-10-31T17:18:07;98609.06;;;10.15;100.00
27984;BME280;15317;50.360;8.726;2023-10-31T17:23:14;98596.13;;;10.25;100.00
27984;BME280;15317;50.360;8.726;2023-10-31T17:28:17;98605.28;;;10.24;100.00
27984;BME280;15317;50.360;8.726;2023-10-31T17:33:21;98609.06;;;10.15;100.00
27984;BME280;15317;50.360;8.726;2023-10-31T17:38:30;98616.56;;;10.05;100.00
27984;BME280;15317;50.360;8.726;2023-10-31T17:43:34;98616.59;;;9.97;100.00
27984;BME280;15317;50.360;8.726;2023-10-31T17:48:38;98618.50;;;9.96;100.00
27984;BME280;15317;50.360;8.726;2023-10-31T17:53:42;98621.22;;;9.96;100.00
27984;BME280;15317;50.360;8.726;2023-10-31T17:58:46;98633.72;;;9.97;100.00
27984;BME280;15317;50.360;8.726;2023-10-31T18:03:49;98638.31;;;9.97;100.00
27984;BME280;15317;50.360;8.726;2023-10-31T18:08:54;98636.53;;;10.12;100.00
27984;BME280;15317;50.360;8.726;2023-10-31T18:13:58;98648.06;;;10.22;100.00
27984;BME280;15317;50.360;8.726;2023-10-31T18:19:01;98655.31;;;10.29;100.00
27984;BME280;15317;50.360;8.726;2023-10-31T18:24:06;98664.25;;;10.38;100.00
27984;BME280;15317;50.360;8.726;2023-10-31T18:29:10;98657.78;;;10.39;100.00
27984;BME280;15317;50.360;8.726;2023-10-31T18:34:13;98660.19;;;10.34;100.00
27984;BME280;15317;50.360;8.726;2023-10-31T18:39:17;98678.22;;;10.27;100.00
27984;BME280;15317;50.360;8.726;2023-10-31T18:44:20;98670.75;;;10.29;100.00
27984;BME280;15317;50.360;8.726;2023-10-31T18:49:40;98676.78;;;10.39;100.00
27984;BME280;15317;50.360;8.726;2023-10-31T18:54:44;98676.91;;;10.46;100.00
27984;BME280;15317;50.360;8.726;2023-10-31T18:59:48;98678.63;;;10.47;100.00
27984;BME280;15317;50.360;8.726;2023-10-31T19:04:51;98670.78;;;10.52;100.00
27984;BME280;15317;50.360;8.726;2023-10-31T19:09:56;98679.41;;;10.55;100.00
27984;BME280;15317;50.360;8.726;2023-10-31T19:14:59;98674.03;;;10.47;100.00
27984;BME280;15317;50.360;8.726;2023-10-31T19:20:03;98684.75;;;10.41;100.00
27984;BME280;15317;50.360;8.726;2023-10-31T19:25:08;98689.38;;;10.32;100.00
27984;BME280;15317;50.360;8.726;2023-10-31T19:30:12;98697.75;;;10.14;100.00
27984;BME280;15317;50.360;8.726;2023-10-31T19:35:17;98699.50;;;10.07;100.00
27984;BME280;15317;50.360;8.726;2023-10-31T19:40:22;98721.03;;;10.01;100.00
27984;BME280;15317;50.360;8.726;2023-10-31T19:45:26;98730.22;;;9.91;100.00
27984;BME280;15317;50.360;8.726;2023-10-31T19:50:29;98732.31;;;9.81;100.00
27984;BME280;15317;50.360;8.726;2023-10-31T19:55:34;98738.41;;;9.75;100.00
27984;BME280;15317;50.360;8.726;2023-10-31T20:00:38;98743.31;;;9.72;100.00
27984;BME280;15317;50.360;8.726;2023-10-31T20:05:41;98759.44;;;9.65;100.00
27984;BME280;15317;50.360;8.726;2023-10-31T20:10:46;98773.31;;;9.62;100.00
27984;BME280;15317;50.360;8.726;2023-10-31T20:15:49;98768.41;;;9.66;100.00
27984;BME280;15317;50.360;8.726;2023-10-31T20:20:54;98768.94;;;9.61;100.00
27984;BME280;15317;50.360;8.726;2023-10-31T20:25:59;98783.50;;;9.60;100.00
27984;BME280;15317;50.360;8.726;2023-10-31T20:31:02;98777.56;;;9.65;100.00
27984;BME280;15317;50.360;8.726;2023-10-31T20:36:06;98779.78;;;9.61;100.00
27984;BME280;15317;50.360;8.726;2023-10-31T20:41:10;98793.34;;;9.61;100.00
27984;BME280;15317;50.360;8.726;2023-10-31T20:46:13;98791.97;;;9.65;100.00
27984;BME280;15317;50.360;8.726;2023-10-31T20:51:17;98785.69;;;9.65;100.00
27984;BME280;15317;50.360;8.726;2023-10-31T20:56:22;98786.38;;;9.67;100.00
27984;BME280;15317;50.360;8.726;2023-10-31T21:01:25;98789.59;;;9.70;100.00
27984;BME280;15317;50.360;8.726;2023-10-31T21:06:28;98786.72;;;9.72;100.00
27984;BME280;15317;50.360;8.726;2023-10-31T21:11:36;98790.28;;;9.72;100.00
27984;BME280;15317;50.360;8.726;2023-10-31T21:16:39;98789.94;;;9.67;100.00
27984;BME280;15317;50.360;8.726;2023-10-31T21:21:42;98792.31;;;9.62;100.00
27984;BME280;15317;50.360;8.726;2023-10-31T21:26:47;98791.97;;;9.65;100.00
27984;BME280;15317;50.360;8.726;2023-10-31T21:31:50;98785.19;;;9.69;100.00
27984;BME280;15317;50.360;8.726;2023-10-31T21:36:54;98783.16;;;9.71;100.00
27984;BME280;15317;50.360;8.726;2023-10-31T21:41:58;98792.66;;;9.75;100.00
27984;BME280;15317;50.360;8.726;2023-10-31T21:47:01;98796.19;;;9.76;100.00
27984;BME280;15317;50.360;8.726;2023-10-31T21:52:05;98796.53;;;9.81;100.00
27984;BME280;15317;50.360;8.726;2023-10-31T21:57:10;98796.69;;;9.79;100.00
27984;BME280;15317;50.360;8.726;2023-10-31T22:02:13;98797.38;;;9.81;100.00
27984;BME280;15317;50.360;8.726;2023-10-31T22:07:16;98787.56;;;9.80;100.00
27984;BME280;15317;50.360;8.726;2023-10-31T22:12:21;98783.13;;;9.79;100.00
27984;BME280;15317;50.360;8.726;2023-10-31T22:17:24;98784.16;;;9.86;100.00
27984;BME280;15317;50.360;8.726;2023-10-31T22:22:27;98783.63;;;9.83;100.00
27984;BME280;15317;50.360;8.726;2023-10-31T22:27:32;98785.69;;;9.81;100.00
27984;BME280;15317;50.360;8.726;2023-10-31T22:32:37;98779.75;;;9.85;100.00
27984;BME280;15317;50.360;8.726;2023-10-31T22:37:42;98776.00;;;9.86;100.00
27984;BME280;15317;50.360;8.726;2023-10-31T22:42:46;98787.53;;;9.88;100.00
27984;BME280;15317;50.360;8.726;2023-10-31T22:47:49;98796.69;;;9.87;100.00
27984;BME280;15317;50.360;8.726;2023-10-31T22:52:52;98792.28;;;9.86;100.00
27984;BME280;15317;50.360;8.726;2023-10-31T22:57:57;98788.88;;;9.84;100.00
27984;BME280;15317;50.360;8.726;2023-10-31T23:03:00;98786.88;;;9.86;100.00
27984;BME280;15317;50.360;8.726;2023-10-31T23:08:04;98783.13;;;9.79;100.00
27984;BME280;15317;50.360;8.726;2023-10-31T23:13:10;98782.28;;;9.79;100.00
27984;BME280;15317;50.360;8.726;2023-10-31T23:18:13;98784.84;;;9.72;100.00
27984;BME280;15317;50.360;8.726;2023-10-31T23:23:16;98775.69;;;9.65;100.00
27984;BME280;15317;50.360;8.726;2023-10-31T23:28:22;98785.88;;;9.71;100.00
27984;BME280;15317;50.360;8.726;2023-10-31T23:33:30;98782.66;;;9.60;100.00
27984;BME280;15317;50.360;8.726;2023-10-31T23:38:33;98781.13;;;9.49;100.00
27984;BME280;15317;50.360;8.726;2023-10-31T23:43:37;98785.88;;;9.39;100.00
27984;BME280;15317;50.360;8.726;2023-10-31T23:48:41;98779.44;;;9.32;100.00
27984;BME280;15317;50.360;8.726;2023-10-31T23:53:44;98783.16;;;9.31;100.00
27984;BME280;15317;50.360;8.726;2023-10-31T23:58:51;98787.56;;;9.32;100.00
